If you wish to contribute or participate in the discussions about articles you are invited to join SKYbrary as a registered user

 Actions

Viru Viru International Airport

From SKYbrary Wiki

SLVR
Airport
ICAO: SLVR – IATA: VVI
Summary
Name Viru Viru International Airport
Region South America and Caribbean
Territory Bolivia BO.gif
Location Santa Cruz de la Sierra, Santa Cruz
Serving Santa Cruz
Elevation 373.075 m
1,224 ft
1,224 ft373.075 m
Type medium airport
Coordinates 17° 38' 41.12" S, 63° 8' 7.31" W
Runways
Designator Length Width Surface ROPS
16/34 3500 m11,482.94 ft
45 m147.638 ft
CON yes/yes


METAR
Observation SLVR 232114Z 18008KT 9999 BKN008 BKN070 21/21 Q1012
Station Viru-Viru
Date/Time 23 April 2019 21:14:00
Wind direction 180°
Wind speed 08 kts
Lowest cloud amount broken clouds
Temperature 21°C
Dew point 21°C
Humidity 100%
QNH 1012 hPa
Weather condition n/a

International Airport serving Santa Cruz de la Sierra, Bolivia.

Climatology

Tropical Savanna climate (Köppen climate classification Aw).

Maps

Terrain

Loading map...

Airport Layout

Loading map...


Accidents & Serious Incidents at or in vicinity of SLVR

None on SKYbrary